sensor_id;sensor_type;location;lat;lon;timestamp;P1;durP1;ratioP1;P2;durP2;ratioP2
4174;SDS011;2101;48.290;14.382;2023-02-28T00:00:13;14.33;;;2.53;;
4174;SDS011;2101;48.290;14.382;2023-02-28T00:02:40;11.40;;;2.20;;
4174;SDS011;2101;48.290;14.382;2023-02-28T00:05:07;12.30;;;2.03;;
4174;SDS011;2101;48.290;14.382;2023-02-28T00:07:34;13.67;;;2.73;;
4174;SDS011;2101;48.290;14.382;2023-02-28T00:10:00;12.60;;;2.50;;
4174;SDS011;2101;48.290;14.382;2023-02-28T00:12:28;11.20;;;2.10;;
4174;SDS011;2101;48.290;14.382;2023-02-28T00:14:54;13.30;;;1.83;;
4174;SDS011;2101;48.290;14.382;2023-02-28T00:17:20;15.80;;;3.27;;
4174;SDS011;2101;48.290;14.382;2023-02-28T00:19:47;14.93;;;2.90;;
4174;SDS011;2101;48.290;14.382;2023-02-28T00:22:14;13.97;;;2.40;;
4174;SDS011;2101;48.290;14.382;2023-02-28T00:24:41;11.43;;;2.20;;
4174;SDS011;2101;48.290;14.382;2023-02-28T00:27:07;11.73;;;2.37;;
4174;SDS011;2101;48.290;14.382;2023-02-28T00:29:34;12.40;;;3.20;;
4174;SDS011;2101;48.290;14.382;2023-02-28T00:32:01;11.93;;;2.53;;
4174;SDS011;2101;48.290;14.382;2023-02-28T00:34:29;12.33;;;1.93;;
4174;SDS011;2101;48.290;14.382;2023-02-28T00:36:55;24.13;;;2.40;;
4174;SDS011;2101;48.290;14.382;2023-02-28T00:39:22;9.97;;;2.00;;
4174;SDS011;2101;48.290;14.382;2023-02-28T00:41:48;12.40;;;2.73;;
4174;SDS011;2101;48.290;14.382;2023-02-28T00:44:16;14.00;;;2.30;;
4174;SDS011;2101;48.290;14.382;2023-02-28T00:46:43;12.43;;;2.53;;
4174;SDS011;2101;48.290;14.382;2023-02-28T00:49:09;12.63;;;2.67;;
4174;SDS011;2101;48.290;14.382;2023-02-28T00:51:35;14.10;;;3.23;;
4174;SDS011;2101;48.290;14.382;2023-02-28T00:54:03;20.43;;;2.27;;
4174;SDS011;2101;48.290;14.382;2023-02-28T00:56:29;12.73;;;2.53;;
4174;SDS011;2101;48.290;14.382;2023-02-28T00:58:55;11.60;;;2.70;;
4174;SDS011;2101;48.290;14.382;2023-02-28T01:01:22;13.23;;;2.67;;
4174;SDS011;2101;48.290;14.382;2023-02-28T01:03:51;15.00;;;2.97;;
4174;SDS011;2101;48.290;14.382;2023-02-28T01:06:17;13.23;;;2.50;;
4174;SDS011;2101;48.290;14.382;2023-02-28T01:08:44;14.40;;;2.80;;
4174;SDS011;2101;48.290;14.382;2023-02-28T01:11:11;12.90;;;1.90;;
4174;SDS011;2101;48.290;14.382;2023-02-28T01:13:37;13.90;;;2.40;;
4174;SDS011;2101;48.290;14.382;2023-02-28T01:16:04;13.80;;;3.27;;
4174;SDS011;2101;48.290;14.382;2023-02-28T01:18:31;10.07;;;1.87;;
4174;SDS011;2101;48.290;14.382;2023-02-28T01:20:57;10.27;;;1.60;;
4174;SDS011;2101;48.290;14.382;2023-02-28T01:23:24;16.43;;;3.80;;
4174;SDS011;2101;48.290;14.382;2023-02-28T01:25:50;11.50;;;2.43;;
4174;SDS011;2101;48.290;14.382;2023-02-28T01:28:17;16.30;;;3.97;;
4174;SDS011;2101;48.290;14.382;2023-02-28T01:30:47;11.57;;;2.27;;
4174;SDS011;2101;48.290;14.382;2023-02-28T01:33:13;14.10;;;3.07;;
4174;SDS011;2101;48.290;14.382;2023-02-28T01:35:39;15.43;;;3.30;;
4174;SDS011;2101;48.290;14.382;2023-02-28T01:38:05;11.17;;;2.03;;
4174;SDS011;2101;48.290;14.382;2023-02-28T01:40:33;12.30;;;2.53;;
4174;SDS011;2101;48.290;14.382;2023-02-28T01:42:59;13.40;;;2.83;;
4174;SDS011;2101;48.290;14.382;2023-02-28T01:45:29;10.30;;;1.37;;
4174;SDS011;2101;48.290;14.382;2023-02-28T01:48:00;11.57;;;2.00;;
4174;SDS011;2101;48.290;14.382;2023-02-28T01:50:29;12.77;;;2.03;;
4174;SDS011;2101;48.290;14.382;2023-02-28T01:52:56;12.67;;;2.60;;
4174;SDS011;2101;48.290;14.382;2023-02-28T01:55:25;16.03;;;2.70;;
4174;SDS011;2101;48.290;14.382;2023-02-28T01:57:55;15.10;;;2.83;;
4174;SDS011;2101;48.290;14.382;2023-02-28T02:00:23;10.17;;;1.80;;
4174;SDS011;2101;48.290;14.382;2023-02-28T02:02:53;15.13;;;4.03;;
4174;SDS011;2101;48.290;14.382;2023-02-28T02:05:21;12.77;;;2.90;;
4174;SDS011;2101;48.290;14.382;2023-02-28T02:07:49;13.57;;;2.57;;
4174;SDS011;2101;48.290;14.382;2023-02-28T02:10:21;11.40;;;2.00;;
4174;SDS011;2101;48.290;14.382;2023-02-28T02:15:25;14.60;;;3.20;;
4174;SDS011;2101;48.290;14.382;2023-02-28T02:17:55;12.20;;;2.67;;
4174;SDS011;2101;48.290;14.382;2023-02-28T02:25:34;11.10;;;1.77;;
4174;SDS011;2101;48.290;14.382;2023-02-28T02:30:51;13.40;;;3.40;;
4174;SDS011;2101;48.290;14.382;2023-02-28T02:33:38;16.90;;;2.80;;
4174;SDS011;2101;48.290;14.382;2023-02-28T02:36:18;12.70;;;1.80;;
4174;SDS011;2101;48.290;14.382;2023-02-28T02:38:49;11.63;;;2.13;;
4174;SDS011;2101;48.290;14.382;2023-02-28T02:44:03;12.20;;;2.73;;
4174;SDS011;2101;48.290;14.382;2023-02-28T02:46:33;17.87;;;3.70;;
4174;SDS011;2101;48.290;14.382;2023-02-28T02:49:03;14.03;;;3.10;;
4174;SDS011;2101;48.290;14.382;2023-02-28T02:51:31;13.40;;;2.70;;
4174;SDS011;2101;48.290;14.382;2023-02-28T02:54:03;17.73;;;2.97;;
4174;SDS011;2101;48.290;14.382;2023-02-28T02:56:31;14.33;;;2.97;;
4174;SDS011;2101;48.290;14.382;2023-02-28T02:59:01;15.10;;;3.10;;
4174;SDS011;2101;48.290;14.382;2023-02-28T03:01:28;15.70;;;3.07;;
4174;SDS011;2101;48.290;14.382;2023-02-28T03:03:58;15.90;;;3.30;;
4174;SDS011;2101;48.290;14.382;2023-02-28T03:06:25;13.07;;;2.60;;
4174;SDS011;2101;48.290;14.382;2023-02-28T03:08:51;14.63;;;3.10;;
4174;SDS011;2101;48.290;14.382;2023-02-28T03:11:17;11.20;;;2.37;;
4174;SDS011;2101;48.290;14.382;2023-02-28T03:13:55;12.37;;;2.57;;
4174;SDS011;2101;48.290;14.382;2023-02-28T03:16:32;13.60;;;2.87;;
4174;SDS011;2101;48.290;14.382;2023-02-28T03:19:04;15.07;;;3.87;;
4174;SDS011;2101;48.290;14.382;2023-02-28T03:24:16;14.80;;;2.27;;
4174;SDS011;2101;48.290;14.382;2023-02-28T03:26:45;11.73;;;2.10;;
4174;SDS011;2101;48.290;14.382;2023-02-28T03:29:24;13.43;;;2.57;;
4174;SDS011;2101;48.290;14.382;2023-02-28T03:32:11;14.13;;;2.70;;
4174;SDS011;2101;48.290;14.382;2023-02-28T03:34:45;14.00;;;2.70;;
4174;SDS011;2101;48.290;14.382;2023-02-28T03:37:13;9.80;;;1.67;;
4174;SDS011;2101;48.290;14.382;2023-02-28T03:39:42;11.90;;;3.00;;
4174;SDS011;2101;48.290;14.382;2023-02-28T03:42:11;12.80;;;2.87;;
4174;SDS011;2101;48.290;14.382;2023-02-28T03:44:43;12.37;;;2.73;;
4174;SDS011;2101;48.290;14.382;2023-02-28T03:47:14;13.27;;;3.43;;
4174;SDS011;2101;48.290;14.382;2023-02-28T03:49:53;13.67;;;2.80;;
4174;SDS011;2101;48.290;14.382;2023-02-28T03:52:20;16.30;;;3.33;;
4174;SDS011;2101;48.290;14.382;2023-02-28T03:54:48;10.10;;;2.27;;
4174;SDS011;2101;48.290;14.382;2023-02-28T03:59:52;14.50;;;3.50;;
4174;SDS011;2101;48.290;14.382;2023-02-28T04:02:20;14.47;;;3.27;;
4174;SDS011;2101;48.290;14.382;2023-02-28T04:04:46;13.10;;;2.30;;
4174;SDS011;2101;48.290;14.382;2023-02-28T04:07:13;16.20;;;2.80;;
4174;SDS011;2101;48.290;14.382;2023-02-28T04:09:41;21.50;;;4.20;;
4174;SDS011;2101;48.290;14.382;2023-02-28T04:12:07;18.37;;;3.50;;
4174;SDS011;2101;48.290;14.382;2023-02-28T04:14:33;19.53;;;3.30;;
4174;SDS011;2101;48.290;14.382;2023-02-28T04:17:01;15.70;;;3.77;;
4174;SDS011;2101;48.290;14.382;2023-02-28T04:19:27;13.50;;;3.13;;
4174;SDS011;2101;48.290;14.382;2023-02-28T04:21:53;13.40;;;2.67;;
4174;SDS011;2101;48.290;14.382;2023-02-28T04:24:25;13.37;;;3.00;;
4174;SDS011;2101;48.290;14.382;2023-02-28T04:26:53;11.30;;;2.10;;
4174;SDS011;2101;48.290;14.382;2023-02-28T04:29:23;12.33;;;2.87;;
4174;SDS011;2101;48.290;14.382;2023-02-28T04:31:50;16.57;;;2.90;;
4174;SDS011;2101;48.290;14.382;2023-02-28T04:34:18;12.40;;;3.10;;
4174;SDS011;2101;48.290;14.382;2023-02-28T04:36:44;13.20;;;3.10;;
4174;SDS011;2101;48.290;14.382;2023-02-28T04:39:11;16.67;;;3.40;;
4174;SDS011;2101;48.290;14.382;2023-02-28T04:41:38;12.27;;;3.13;;
4174;SDS011;2101;48.290;14.382;2023-02-28T04:44:04;14.07;;;3.17;;
4174;SDS011;2101;48.290;14.382;2023-02-28T04:46:30;16.93;;;4.43;;
4174;SDS011;2101;48.290;14.382;2023-02-28T04:48:57;15.03;;;3.80;;
4174;SDS011;2101;48.290;14.382;2023-02-28T04:51:24;15.93;;;3.33;;
4174;SDS011;2101;48.290;14.382;2023-02-28T04:53:50;11.90;;;2.53;;
4174;SDS011;2101;48.290;14.382;2023-02-28T04:56:16;16.00;;;3.57;;
4174;SDS011;2101;48.290;14.382;2023-02-28T04:58:43;15.03;;;3.40;;
4174;SDS011;2101;48.290;14.382;2023-02-28T05:01:17;15.40;;;3.20;;
4174;SDS011;2101;48.290;14.382;2023-02-28T05:03:43;13.13;;;3.20;;
4174;SDS011;2101;48.290;14.382;2023-02-28T05:06:10;13.83;;;2.90;;
4174;SDS011;2101;48.290;14.382;2023-02-28T05:08:37;13.43;;;2.33;;
4174;SDS011;2101;48.290;14.382;2023-02-28T05:11:03;12.27;;;2.20;;
4174;SDS011;2101;48.290;14.382;2023-02-28T05:13:30;15.13;;;3.43;;
4174;SDS011;2101;48.290;14.382;2023-02-28T05:15:56;13.60;;;3.03;;
4174;SDS011;2101;48.290;14.382;2023-02-28T05:18:23;14.60;;;3.30;;
4174;SDS011;2101;48.290;14.382;2023-02-28T05:20:49;14.17;;;3.17;;
4174;SDS011;2101;48.290;14.382;2023-02-28T05:23:15;13.30;;;3.27;;
4174;SDS011;2101;48.290;14.382;2023-02-28T05:25:43;12.80;;;3.13;;
4174;SDS011;2101;48.290;14.382;2023-02-28T05:28:09;13.00;;;2.87;;
4174;SDS011;2101;48.290;14.382;2023-02-28T05:30:35;12.57;;;2.80;;
4174;SDS011;2101;48.290;14.382;2023-02-28T05:33:02;14.80;;;2.20;;
4174;SDS011;2101;48.290;14.382;2023-02-28T05:35:28;13.60;;;3.30;;
4174;SDS011;2101;48.290;14.382;2023-02-28T05:37:54;12.87;;;2.47;;
4174;SDS011;2101;48.290;14.382;2023-02-28T05:40:20;23.53;;;3.50;;
4174;SDS011;2101;48.290;14.382;2023-02-28T05:42:46;17.50;;;4.17;;
4174;SDS011;2101;48.290;14.382;2023-02-28T05:45:12;22.00;;;4.13;;
4174;SDS011;2101;48.290;14.382;2023-02-28T05:47:39;18.90;;;3.50;;
4174;SDS011;2101;48.290;14.382;2023-02-28T05:50:05;13.47;;;2.80;;
4174;SDS011;2101;48.290;14.382;2023-02-28T05:52:32;11.53;;;2.20;;
4174;SDS011;2101;48.290;14.382;2023-02-28T05:54:58;10.60;;;1.97;;
4174;SDS011;2101;48.290;14.382;2023-02-28T05:57:24;15.23;;;3.30;;
4174;SDS011;2101;48.290;14.382;2023-02-28T05:59:51;13.30;;;3.50;;
4174;SDS011;2101;48.290;14.382;2023-02-28T06:02:17;12.17;;;2.27;;
4174;SDS011;2101;48.290;14.382;2023-02-28T06:04:43;15.30;;;3.27;;
4174;SDS011;2101;48.290;14.382;2023-02-28T06:07:10;16.20;;;3.03;;
4174;SDS011;2101;48.290;14.382;2023-02-28T06:09:36;16.57;;;3.97;;
4174;SDS011;2101;48.290;14.382;2023-02-28T06:12:09;15.73;;;2.93;;
4174;SDS011;2101;48.290;14.382;2023-02-28T06:14:37;13.83;;;3.30;;
4174;SDS011;2101;48.290;14.382;2023-02-28T06:17:04;9.30;;;1.43;;
4174;SDS011;2101;48.290;14.382;2023-02-28T06:19:30;17.00;;;3.93;;
4174;SDS011;2101;48.290;14.382;2023-02-28T06:21:57;15.07;;;3.50;;
4174;SDS011;2101;48.290;14.382;2023-02-28T06:24:25;11.97;;;2.27;;
4174;SDS011;2101;48.290;14.382;2023-02-28T06:26:53;12.37;;;2.40;;
4174;SDS011;2101;48.290;14.382;2023-02-28T06:29:19;14.70;;;3.63;;
4174;SDS011;2101;48.290;14.382;2023-02-28T06:31:45;12.37;;;2.10;;
4174;SDS011;2101;48.290;14.382;2023-02-28T06:34:13;14.73;;;3.17;;
4174;SDS011;2101;48.290;14.382;2023-02-28T06:36:40;15.70;;;3.77;;
4174;SDS011;2101;48.290;14.382;2023-02-28T06:39:08;14.13;;;2.37;;
4174;SDS011;2101;48.290;14.382;2023-02-28T06:41:34;13.47;;;2.60;;
4174;SDS011;2101;48.290;14.382;2023-02-28T06:44:11;13.60;;;3.47;;
4174;SDS011;2101;48.290;14.382;2023-02-28T06:46:40;13.57;;;3.03;;
4174;SDS011;2101;48.290;14.382;2023-02-28T06:49:07;13.37;;;2.63;;
4174;SDS011;2101;48.290;14.382;2023-02-28T06:51:37;15.60;;;3.33;;
4174;SDS011;2101;48.290;14.382;2023-02-28T06:54:04;11.83;;;2.53;;
4174;SDS011;2101;48.290;14.382;2023-02-28T06:56:30;12.50;;;2.20;;
4174;SDS011;2101;48.290;14.382;2023-02-28T06:58:58;14.97;;;2.90;;
4174;SDS011;2101;48.290;14.382;2023-02-28T07:01:24;17.00;;;3.77;;
4174;SDS011;2101;48.290;14.382;2023-02-28T07:03:50;12.40;;;1.77;;
4174;SDS011;2101;48.290;14.382;2023-02-28T07:06:21;11.47;;;2.63;;
4174;SDS011;2101;48.290;14.382;2023-02-28T07:08:48;14.63;;;3.43;;
4174;SDS011;2101;48.290;14.382;2023-02-28T07:11:14;12.70;;;2.67;;
4174;SDS011;2101;48.290;14.382;2023-02-28T07:13:41;19.27;;;2.80;;
4174;SDS011;2101;48.290;14.382;2023-02-28T07:16:09;17.60;;;3.90;;
4174;SDS011;2101;48.290;14.382;2023-02-28T07:18:36;16.67;;;4.07;;
4174;SDS011;2101;48.290;14.382;2023-02-28T07:21:03;18.60;;;3.00;;
4174;SDS011;2101;48.290;14.382;2023-02-28T07:23:30;15.57;;;3.23;;
4174;SDS011;2101;48.290;14.382;2023-02-28T07:25:56;12.20;;;2.87;;
4174;SDS011;2101;48.290;14.382;2023-02-28T07:28:23;13.87;;;3.27;;
4174;SDS011;2101;48.290;14.382;2023-02-28T07:30:49;30.23;;;3.50;;
4174;SDS011;2101;48.290;14.382;2023-02-28T07:33:15;16.87;;;3.77;;
4174;SDS011;2101;48.290;14.382;2023-02-28T07:35:41;17.17;;;3.40;;
4174;SDS011;2101;48.290;14.382;2023-02-28T07:38:08;13.90;;;3.40;;
4174;SDS011;2101;48.290;14.382;2023-02-28T07:40:35;14.50;;;2.83;;
4174;SDS011;2101;48.290;14.382;2023-02-28T07:43:02;16.07;;;3.47;;
4174;SDS011;2101;48.290;14.382;2023-02-28T07:45:29;17.13;;;3.97;;
4174;SDS011;2101;48.290;14.382;2023-02-28T07:47:59;15.10;;;3.40;;
4174;SDS011;2101;48.290;14.382;2023-02-28T07:50:25;13.10;;;2.00;;
4174;SDS011;2101;48.290;14.382;2023-02-28T07:52:56;15.63;;;3.50;;
4174;SDS011;2101;48.290;14.382;2023-02-28T07:55:23;16.30;;;3.97;;
4174;SDS011;2101;48.290;14.382;2023-02-28T07:57:49;14.57;;;2.80;;
4174;SDS011;2101;48.290;14.382;2023-02-28T08:00:15;19.73;;;3.67;;
4174;SDS011;2101;48.290;14.382;2023-02-28T08:02:42;19.87;;;4.13;;
4174;SDS011;2101;48.290;14.382;2023-02-28T08:05:08;15.93;;;3.07;;
4174;SDS011;2101;48.290;14.382;2023-02-28T08:07:34;17.87;;;3.63;;
4174;SDS011;2101;48.290;14.382;2023-02-28T08:10:00;16.20;;;3.57;;
4174;SDS011;2101;48.290;14.382;2023-02-28T08:12:27;17.63;;;3.67;;
4174;SDS011;2101;48.290;14.382;2023-02-28T08:14:53;18.60;;;3.90;;
4174;SDS011;2101;48.290;14.382;2023-02-28T08:17:19;16.93;;;3.30;;
4174;SDS011;2101;48.290;14.382;2023-02-28T08:19:45;28.23;;;3.73;;
4174;SDS011;2101;48.290;14.382;2023-02-28T08:22:12;17.53;;;4.07;;
4174;SDS011;2101;48.290;14.382;2023-02-28T08:24:38;15.50;;;3.60;;
4174;SDS011;2101;48.290;14.382;2023-02-28T08:27:07;13.30;;;2.53;;
4174;SDS011;2101;48.290;14.382;2023-02-28T08:29:36;21.93;;;3.67;;
4174;SDS011;2101;48.290;14.382;2023-02-28T08:32:02;18.80;;;3.80;;
4174;SDS011;2101;48.290;14.382;2023-02-28T08:34:29;15.47;;;3.27;;
4174;SDS011;2101;48.290;14.382;2023-02-28T08:36:55;14.50;;;3.27;;
4174;SDS011;2101;48.290;14.382;2023-02-28T08:39:21;19.67;;;4.00;;
4174;SDS011;2101;48.290;14.382;2023-02-28T08:41:47;17.17;;;4.20;;
4174;SDS011;2101;48.290;14.382;2023-02-28T08:44:13;13.70;;;3.20;;
4174;SDS011;2101;48.290;14.382;2023-02-28T08:46:39;15.00;;;2.63;;
4174;SDS011;2101;48.290;14.382;2023-02-28T08:49:05;15.30;;;2.63;;
4174;SDS011;2101;48.290;14.382;2023-02-28T08:51:32;15.40;;;3.40;;
4174;SDS011;2101;48.290;14.382;2023-02-28T08:53:58;19.47;;;4.07;;
4174;SDS011;2101;48.290;14.382;2023-02-28T08:56:25;16.87;;;4.60;;
4174;SDS011;2101;48.290;14.382;2023-02-28T08:58:51;14.10;;;3.43;;
4174;SDS011;2101;48.290;14.382;2023-02-28T09:01:20;18.27;;;3.20;;
4174;SDS011;2101;48.290;14.382;2023-02-28T09:03:47;15.97;;;3.50;;
4174;SDS011;2101;48.290;14.382;2023-02-28T09:06:15;17.53;;;3.53;;
4174;SDS011;2101;48.290;14.382;2023-02-28T09:08:41;14.67;;;3.13;;
4174;SDS011;2101;48.290;14.382;2023-02-28T09:11:08;14.60;;;3.10;;
4174;SDS011;2101;48.290;14.382;2023-02-28T09:13:34;12.67;;;2.20;;
4174;SDS011;2101;48.290;14.382;2023-02-28T09:16:01;15.20;;;3.90;;
4174;SDS011;2101;48.290;14.382;2023-02-28T09:18:28;15.77;;;3.80;;
4174;SDS011;2101;48.290;14.382;2023-02-28T09:20:54;17.60;;;3.40;;
4174;SDS011;2101;48.290;14.382;2023-02-28T09:23:20;13.17;;;2.87;;
4174;SDS011;2101;48.290;14.382;2023-02-28T09:25:49;15.97;;;3.73;;
4174;SDS011;2101;48.290;14.382;2023-02-28T09:28:16;13.80;;;3.60;;
4174;SDS011;2101;48.290;14.382;2023-02-28T09:30:44;17.97;;;4.13;;
4174;SDS011;2101;48.290;14.382;2023-02-28T09:33:10;15.40;;;3.30;;
4174;SDS011;2101;48.290;14.382;2023-02-28T09:35:36;17.47;;;3.53;;
4174;SDS011;2101;48.290;14.382;2023-02-28T09:38:03;19.60;;;3.40;;
4174;SDS011;2101;48.290;14.382;2023-02-28T09:40:29;17.87;;;3.80;;
4174;SDS011;2101;48.290;14.382;2023-02-28T09:42:56;16.53;;;3.90;;
4174;SDS011;2101;48.290;14.382;2023-02-28T09:45:30;15.77;;;4.07;;
4174;SDS011;2101;48.290;14.382;2023-02-28T09:48:12;15.93;;;3.27;;
4174;SDS011;2101;48.290;14.382;2023-02-28T09:50:41;16.47;;;3.57;;
4174;SDS011;2101;48.290;14.382;2023-02-28T09:55:48;15.17;;;3.53;;
4174;SDS011;2101;48.290;14.382;2023-02-28T10:01:06;17.77;;;4.07;;
4174;SDS011;2101;48.290;14.382;2023-02-28T10:03:55;18.40;;;3.73;;
4174;SDS011;2101;48.290;14.382;2023-02-28T10:06:28;16.77;;;4.10;;
4174;SDS011;2101;48.290;14.382;2023-02-28T10:09:01;18.00;;;3.60;;
4174;SDS011;2101;48.290;14.382;2023-02-28T10:11:28;17.13;;;4.13;;
4174;SDS011;2101;48.290;14.382;2023-02-28T10:16:42;19.07;;;3.30;;
4174;SDS011;2101;48.290;14.382;2023-02-28T10:22:00;17.77;;;3.60;;
4174;SDS011;2101;48.290;14.382;2023-02-28T10:26:53;15.77;;;3.27;;
4174;SDS011;2101;48.290;14.382;2023-02-28T10:29:23;16.00;;;3.40;;
4174;SDS011;2101;48.290;14.382;2023-02-28T10:31:49;14.47;;;3.17;;
4174;SDS011;2101;48.290;14.382;2023-02-28T10:34:20;14.07;;;2.30;;
4174;SDS011;2101;48.290;14.382;2023-02-28T10:36:49;14.10;;;2.83;;
4174;SDS011;2101;48.290;14.382;2023-02-28T10:42:00;15.27;;;3.23;;
4174;SDS011;2101;48.290;14.382;2023-02-28T10:44:26;13.70;;;2.93;;
4174;SDS011;2101;48.290;14.382;2023-02-28T10:46:52;13.07;;;2.20;;
4174;SDS011;2101;48.290;14.382;2023-02-28T10:51:49;16.10;;;2.57;;
4174;SDS011;2101;48.290;14.382;2023-02-28T10:54:19;14.77;;;3.43;;
4174;SDS011;2101;48.290;14.382;2023-02-28T10:56:54;15.90;;;3.40;;
4174;SDS011;2101;48.290;14.382;2023-02-28T10:59:31;24.57;;;4.10;;
4174;SDS011;2101;48.290;14.382;2023-02-28T11:01:58;12.30;;;2.07;;
4174;SDS011;2101;48.290;14.382;2023-02-28T11:07:17;16.00;;;3.63;;
4174;SDS011;2101;48.290;14.382;2023-02-28T11:09:51;15.57;;;3.30;;
4174;SDS011;2101;48.290;14.382;2023-02-28T11:14:51;16.40;;;3.40;;
4174;SDS011;2101;48.290;14.382;2023-02-28T11:17:19;13.87;;;2.83;;
4174;SDS011;2101;48.290;14.382;2023-02-28T11:19:48;13.30;;;2.80;;
4174;SDS011;2101;48.290;14.382;2023-02-28T11:22:17;14.77;;;3.07;;
4174;SDS011;2101;48.290;14.382;2023-02-28T11:24:44;13.67;;;2.33;;
4174;SDS011;2101;48.290;14.382;2023-02-28T11:27:26;16.40;;;3.50;;
4174;SDS011;2101;48.290;14.382;2023-02-28T11:30:17;17.50;;;3.00;;
4174;SDS011;2101;48.290;14.382;2023-02-28T11:32:48;13.20;;;2.23;;
4174;SDS011;2101;48.290;14.382;2023-02-28T11:35:18;13.67;;;2.97;;
4174;SDS011;2101;48.290;14.382;2023-02-28T11:37:47;17.37;;;3.63;;
4174;SDS011;2101;48.290;14.382;2023-02-28T11:40:18;15.73;;;3.53;;
4174;SDS011;2101;48.290;14.382;2023-02-28T11:48:14;17.97;;;3.77;;
4174;SDS011;2101;48.290;14.382;2023-02-28T11:50:47;18.43;;;3.30;;
4174;SDS011;2101;48.290;14.382;2023-02-28T11:53:37;19.30;;;4.70;;
4174;SDS011;2101;48.290;14.382;2023-02-28T11:56:10;18.20;;;3.40;;
4174;SDS011;2101;48.290;14.382;2023-02-28T12:11:23;17.20;;;3.30;;
4174;SDS011;2101;48.290;14.382;2023-02-28T12:14:14;15.77;;;3.67;;
4174;SDS011;2101;48.290;14.382;2023-02-28T12:27:12;18.73;;;4.70;;
4174;SDS011;2101;48.290;14.382;2023-02-28T12:29:46;18.23;;;3.97;;
4174;SDS011;2101;48.290;14.382;2023-02-28T12:32:18;18.70;;;3.87;;
4174;SDS011;2101;48.290;14.382;2023-02-28T12:34:51;17.60;;;3.63;;
4174;SDS011;2101;48.290;14.382;2023-02-28T12:37:22;18.00;;;4.10;;
4174;SDS011;2101;48.290;14.382;2023-02-28T12:39:51;18.00;;;3.90;;
4174;SDS011;2101;48.290;14.382;2023-02-28T12:42:25;16.37;;;4.00;;
4174;SDS011;2101;48.290;14.382;2023-02-28T12:44:54;20.33;;;5.17;;
4174;SDS011;2101;48.290;14.382;2023-02-28T12:47:22;16.67;;;4.60;;
4174;SDS011;2101;48.290;14.382;2023-02-28T12:49:50;16.73;;;3.93;;
4174;SDS011;2101;48.290;14.382;2023-02-28T12:52:20;18.03;;;4.67;;
4174;SDS011;2101;48.290;14.382;2023-02-28T12:54:51;19.60;;;4.87;;
4174;SDS011;2101;48.290;14.382;2023-02-28T12:59:56;18.77;;;4.23;;
4174;SDS011;2101;48.290;14.382;2023-02-28T13:10:22;15.97;;;3.90;;
4174;SDS011;2101;48.290;14.382;2023-02-28T13:12:52;17.43;;;4.03;;
4174;SDS011;2101;48.290;14.382;2023-02-28T13:15:25;17.47;;;4.50;;
4174;SDS011;2101;48.290;14.382;2023-02-28T13:17:55;17.10;;;4.23;;
4174;SDS011;2101;48.290;14.382;2023-02-28T13:20:24;17.30;;;4.50;;
4174;SDS011;2101;48.290;14.382;2023-02-28T13:22:51;17.23;;;4.10;;
4174;SDS011;2101;48.290;14.382;2023-02-28T13:27:59;15.50;;;3.60;;
4174;SDS011;2101;48.290;14.382;2023-02-28T13:33:34;16.33;;;3.60;;
4174;SDS011;2101;48.290;14.382;2023-02-28T13:36:10;15.20;;;3.27;;
4174;SDS011;2101;48.290;14.382;2023-02-28T13:38:41;19.17;;;4.70;;
4174;SDS011;2101;48.290;14.382;2023-02-28T13:44:19;21.83;;;4.30;;
4174;SDS011;2101;48.290;14.382;2023-02-28T13:51:55;16.90;;;4.40;;
4174;SDS011;2101;48.290;14.382;2023-02-28T13:57:35;15.53;;;3.67;;
4174;SDS011;2101;48.290;14.382;2023-02-28T14:00:09;17.83;;;4.53;;
4174;SDS011;2101;48.290;14.382;2023-02-28T14:05:17;19.23;;;4.03;;
4174;SDS011;2101;48.290;14.382;2023-02-28T14:07:51;16.40;;;4.13;;
4174;SDS011;2101;48.290;14.382;2023-02-28T14:10:31;19.17;;;4.40;;
4174;SDS011;2101;48.290;14.382;2023-02-28T14:12:59;19.03;;;4.17;;
4174;SDS011;2101;48.290;14.382;2023-02-28T14:17:52;17.27;;;3.80;;
4174;SDS011;2101;48.290;14.382;2023-02-28T14:20:19;22.43;;;4.77;;
4174;SDS011;2101;48.290;14.382;2023-02-28T14:23:09;17.13;;;4.10;;
4174;SDS011;2101;48.290;14.382;2023-02-28T14:28:04;19.40;;;4.20;;
4174;SDS011;2101;48.290;14.382;2023-02-28T14:38:31;16.07;;;3.37;;
4174;SDS011;2101;48.290;14.382;2023-02-28T14:41:00;14.67;;;3.60;;
4174;SDS011;2101;48.290;14.382;2023-02-28T14:43:28;22.80;;;4.27;;
4174;SDS011;2101;48.290;14.382;2023-02-28T14:45:55;16.70;;;4.17;;
4174;SDS011;2101;48.290;14.382;2023-02-28T14:48:22;22.33;;;4.47;;
4174;SDS011;2101;48.290;14.382;2023-02-28T14:50:55;17.10;;;4.07;;
4174;SDS011;2101;48.290;14.382;2023-02-28T14:53:27;17.63;;;4.47;;
4174;SDS011;2101;48.290;14.382;2023-02-28T14:55:54;17.40;;;4.57;;
4174;SDS011;2101;48.290;14.382;2023-02-28T14:58:27;20.60;;;5.37;;
4174;SDS011;2101;48.290;14.382;2023-02-28T15:00:55;15.53;;;3.83;;
4174;SDS011;2101;48.290;14.382;2023-02-28T15:03:23;20.00;;;5.80;;
4174;SDS011;2101;48.290;14.382;2023-02-28T15:06:04;18.67;;;4.83;;
4174;SDS011;2101;48.290;14.382;2023-02-28T15:08:33;20.00;;;4.60;;
4174;SDS011;2101;48.290;14.382;2023-02-28T15:11:12;23.13;;;5.17;;
4174;SDS011;2101;48.290;14.382;2023-02-28T15:13:47;20.23;;;4.90;;
4174;SDS011;2101;48.290;14.382;2023-02-28T15:16:26;20.07;;;4.40;;
4174;SDS011;2101;48.290;14.382;2023-02-28T15:18:58;20.90;;;5.50;;
4174;SDS011;2101;48.290;14.382;2023-02-28T15:21:29;17.87;;;4.53;;
4174;SDS011;2101;48.290;14.382;2023-02-28T15:23:58;20.10;;;5.13;;
4174;SDS011;2101;48.290;14.382;2023-02-28T15:26:30;22.17;;;5.80;;
4174;SDS011;2101;48.290;14.382;2023-02-28T15:28:59;18.20;;;5.03;;
4174;SDS011;2101;48.290;14.382;2023-02-28T15:34:35;19.70;;;5.50;;
4174;SDS011;2101;48.290;14.382;2023-02-28T18:01:14;16.80;;;4.37;;
4174;SDS011;2101;48.290;14.382;2023-02-28T18:03:48;17.97;;;4.90;;
4174;SDS011;2101;48.290;14.382;2023-02-28T20:30:27;13.75;;;3.80;;
4174;SDS011;2101;48.290;14.382;2023-02-28T20:32:56;21.50;;;4.70;;
4174;SDS011;2101;48.290;14.382;2023-02-28T20:35:29;19.13;;;5.20;;
4174;SDS011;2101;48.290;14.382;2023-02-28T20:37:57;19.47;;;6.10;;
4174;SDS011;2101;48.290;14.382;2023-02-28T20:40:29;21.83;;;4.30;;
4174;SDS011;2101;48.290;14.382;2023-02-28T20:43:28;17.80;;;4.30;;
4174;SDS011;2101;48.290;14.382;2023-02-28T20:46:31;18.90;;;5.10;;
4174;SDS011;2101;48.290;14.382;2023-02-28T20:52:10;17.23;;;4.37;;
4174;SDS011;2101;48.290;14.382;2023-02-28T20:54:45;20.27;;;6.10;;
4174;SDS011;2101;48.290;14.382;2023-02-28T20:57:15;19.20;;;5.60;;
4174;SDS011;2101;48.290;14.382;2023-02-28T20:59:45;22.33;;;5.60;;
4174;SDS011;2101;48.290;14.382;2023-02-28T21:02:15;17.50;;;4.60;;
4174;SDS011;2101;48.290;14.382;2023-02-28T21:04:42;18.20;;;5.00;;
4174;SDS011;2101;48.290;14.382;2023-02-28T21:07:10;20.07;;;4.50;;
4174;SDS011;2101;48.290;14.382;2023-02-28T21:09:47;21.43;;;6.47;;
4174;SDS011;2101;48.290;14.382;2023-02-28T21:12:23;17.33;;;4.80;;
4174;SDS011;2101;48.290;14.382;2023-02-28T21:14:53;21.30;;;6.10;;
4174;SDS011;2101;48.290;14.382;2023-02-28T21:17:27;22.40;;;6.07;;
4174;SDS011;2101;48.290;14.382;2023-02-28T21:19:59;24.00;;;7.40;;
4174;SDS011;2101;48.290;14.382;2023-02-28T21:31:19;19.97;;;4.87;;
4174;SDS011;2101;48.290;14.382;2023-02-28T21:34:10;18.20;;;4.47;;
4174;SDS011;2101;48.290;14.382;2023-02-28T21:36:41;17.77;;;4.70;;
4174;SDS011;2101;48.290;14.382;2023-02-28T21:39:13;16.73;;;5.10;;
4174;SDS011;2101;48.290;14.382;2023-02-28T21:41:56;19.73;;;5.73;;
4174;SDS011;2101;48.290;14.382;2023-02-28T21:44:27;20.53;;;5.60;;
4174;SDS011;2101;48.290;14.382;2023-02-28T21:46:58;24.50;;;5.93;;
4174;SDS011;2101;48.290;14.382;2023-02-28T21:49:56;21.03;;;5.73;;
4174;SDS011;2101;48.290;14.382;2023-02-28T21:52:45;17.87;;;4.87;;
4174;SDS011;2101;48.290;14.382;2023-02-28T21:55:11;18.50;;;5.90;;
4174;SDS011;2101;48.290;14.382;2023-02-28T21:57:51;32.10;;;6.90;;